Time;durP1;ratioP1;P1;durP2;ratioP2;P2;SDS_P1;SDS_P2;PMS_P1;PMS_P2;Temp;Humidity;BMP_temperature;BMP_pressure;BME280_temperature;BME280_humidity;BME280_pressure;Samples;Min_cycle;Max_cycle;Signal;HPM_P1;HPM_P2
2021/05/28 00:00:33;;;;;;;1.23;0.40;;;16.40;69.70;;;;;;5094036;28;20067;-66
2021/05/28 00:02:59;;;;;;;0.68;0.40;;;16.40;70.50;;;;;;5095387;28;20035;-66
2021/05/28 00:05:25;;;;;;;0.73;0.40;;;16.40;70.10;;;;;;5095432;28;20384;-66
2021/05/28 00:07:51;;;;;;;2.17;0.40;;;16.30;70.00;;;;;;5093822;28;20021;-66
2021/05/28 00:10:17;;;;;;;1.50;0.60;;;16.30;70.60;;;;;;5095160;28;20024;-66
2021/05/28 00:12:43;;;;;;;1.52;0.70;;;16.30;69.60;;;;;;5095158;28;20016;-66
2021/05/28 00:15:11;;;;;;;1.33;0.70;;;16.20;69.90;;;;;;5094968;28;20044;-66
2021/05/28 00:17:37;;;;;;;3.47;0.73;;;16.20;70.70;;;;;;5095043;28;20032;-67
2021/05/28 00:20:04;;;;;;;3.10;0.90;;;16.20;70.90;;;;;;5094800;28;20472;-66
2021/05/28 00:22:30;;;;;;;3.60;0.70;;;16.20;70.80;;;;;;5094672;28;20020;-67
2021/05/28 00:24:56;;;;;;;0.93;0.60;;;16.20;70.70;;;;;;5094060;28;20027;-67
2021/05/28 00:27:23;;;;;;;1.83;0.57;;;16.10;69.70;;;;;;5094475;28;20101;-67
2021/05/28 00:29:49;;;;;;;3.22;0.50;;;16.10;68.60;;;;;;5094495;28;20048;-66
2021/05/28 00:32:15;;;;;;;1.73;0.60;;;16.10;68.00;;;;;;5093268;28;20025;-66
2021/05/28 00:34:40;;;;;;;1.05;0.50;;;16.10;67.50;;;;;;5092949;28;20031;-66
2021/05/28 00:37:06;;;;;;;0.57;0.40;;;16.10;66.80;;;;;;5093495;28;20028;-66
2021/05/28 00:39:32;;;;;;;2.38;0.50;;;16.10;66.60;;;;;;5094687;28;20032;-66
2021/05/28 00:41:57;;;;;;;2.05;0.50;;;16.10;66.20;;;;;;5094203;28;20063;-66
2021/05/28 00:44:28;;;;;;;0.82;0.50;;;16.10;65.90;;;;;;5092906;28;20039;-66
2021/05/28 00:46:53;;;;;;;0.68;0.40;;;16.10;66.50;;;;;;5093006;28;20559;-66
2021/05/28 00:49:19;;;;;;;4.10;0.73;;;16.10;66.80;;;;;;5093622;28;20107;-67
2021/05/28 00:51:45;;;;;;;2.70;0.60;;;16.10;67.10;;;;;;5094188;28;20103;-66
2021/05/28 00:54:11;;;;;;;1.55;0.55;;;16.10;66.70;;;;;;5094221;28;20047;-66
2021/05/28 00:56:38;;;;;;;0.70;0.50;;;16.10;67.10;;;;;;5093743;28;20031;-66
2021/05/28 00:59:05;;;;;;;1.77;0.52;;;16.10;66.80;;;;;;5090587;28;20051;-66
2021/05/28 01:01:32;;;;;;;1.27;0.43;;;16.10;67.10;;;;;;5090282;28;20080;-66
2021/05/28 01:03:57;;;;;;;0.90;0.40;;;16.00;66.60;;;;;;5091558;28;20024;-67
2021/05/28 01:06:24;;;;;;;0.75;0.57;;;16.00;67.60;;;;;;5093613;28;20161;-66
2021/05/28 01:08:50;;;;;;;0.75;0.55;;;15.90;67.30;;;;;;5093906;28;20392;-66
2021/05/28 01:11:16;;;;;;;2.88;0.70;;;15.90;68.40;;;;;;5093748;28;20028;-66
2021/05/28 01:13:42;;;;;;;2.47;0.60;;;15.90;67.80;;;;;;5093590;28;20116;-67
2021/05/28 01:16:07;;;;;;;1.85;0.47;;;15.90;68.30;;;;;;5093805;28;20031;-66
2021/05/28 01:18:33;;;;;;;0.95;0.40;;;15.80;68.60;;;;;;5093556;28;20024;-66
2021/05/28 01:20:59;;;;;;;0.55;0.43;;;15.80;69.00;;;;;;5093679;28;20035;-66
2021/05/28 01:23:25;;;;;;;0.77;0.40;;;15.80;67.80;;;;;;5093967;28;20020;-66
2021/05/28 01:25:50;;;;;;;1.80;0.50;;;15.80;67.90;;;;;;5093517;28;20066;-66
2021/05/28 01:28:16;;;;;;;0.65;0.30;;;15.80;68.20;;;;;;5092170;28;20050;-66
2021/05/28 01:30:42;;;;;;;2.17;0.60;;;15.70;68.40;;;;;;5093647;28;20028;-66
2021/05/28 01:33:08;;;;;;;3.92;0.70;;;15.70;68.20;;;;;;5093484;28;20032;-66
2021/05/28 01:35:34;;;;;;;5.03;0.75;;;15.70;67.50;;;;;;5091493;28;20032;-66
2021/05/28 01:38:00;;;;;;;1.65;0.57;;;15.70;67.00;;;;;;5092236;28;20027;-67
2021/05/28 01:40:26;;;;;;;3.47;0.75;;;15.60;67.50;;;;;;5091888;28;20032;-66
2021/05/28 01:42:51;;;;;;;3.05;0.70;;;15.60;67.80;;;;;;5091383;28;20491;-66
2021/05/28 01:45:18;;;;;;;1.63;0.80;;;15.60;68.30;;;;;;5092215;28;20024;-66
2021/05/28 01:47:44;;;;;;;0.70;0.50;;;15.60;68.00;;;;;;5091484;28;20047;-66
2021/05/28 01:50:11;;;;;;;4.10;0.85;;;15.50;67.80;;;;;;5091936;28;20028;-66
2021/05/28 01:52:37;;;;;;;0.75;0.50;;;15.50;68.00;;;;;;5091196;28;20024;-66
2021/05/28 01:55:05;;;;;;;1.67;0.57;;;15.50;67.80;;;;;;5091790;28;20143;-66
2021/05/28 01:57:31;;;;;;;1.65;0.70;;;15.40;68.60;;;;;;5092663;28;20099;-66
2021/05/28 01:59:56;;;;;;;1.80;0.60;;;15.50;68.40;;;;;;5092961;28;20104;-66
2021/05/28 02:02:22;;;;;;;1.33;0.60;;;15.50;68.90;;;;;;5093060;28;20024;-66
2021/05/28 02:04:48;;;;;;;3.15;0.60;;;15.40;69.00;;;;;;5092991;28;20035;-66
2021/05/28 02:07:14;;;;;;;1.45;0.70;;;15.40;69.60;;;;;;5092973;28;20020;-66
2021/05/28 02:09:39;;;;;;;1.70;0.40;;;15.30;69.40;;;;;;5093034;28;20024;-66
2021/05/28 02:12:05;;;;;;;0.90;0.50;;;15.30;70.00;;;;;;5093069;28;20091;-66
2021/05/28 02:14:31;;;;;;;2.53;0.75;;;15.40;69.10;;;;;;5092882;28;20464;-67
2021/05/28 02:16:59;;;;;;;3.13;0.60;;;;;;;;;;5091577;28;20028;-66
2021/05/28 02:19:25;;;;;;;2.30;0.70;;;15.30;68.60;;;;;;5092716;28;20020;-66
2021/05/28 02:21:51;;;;;;;4.57;1.00;;;15.30;69.00;;;;;;5092273;28;20085;-66
2021/05/28 02:24:18;;;;;;;2.00;0.77;;;15.30;69.10;;;;;;5091823;28;20059;-66
2021/05/28 02:26:45;;;;;;;2.25;0.65;;;15.30;69.60;;;;;;5091872;28;20023;-67
2021/05/28 02:29:12;;;;;;;1.70;0.70;;;15.20;69.20;;;;;;5092553;28;20040;-66
2021/05/28 02:31:38;;;;;;;1.23;0.60;;;15.20;68.30;;;;;;5092942;28;20429;-66
2021/05/28 02:34:04;;;;;;;2.60;0.75;;;15.20;69.10;;;;;;5092847;28;20067;-68
2021/05/28 02:36:31;;;;;;;2.35;0.70;;;15.20;69.10;;;;;;5092791;28;20051;-68
2021/05/28 02:38:56;;;;;;;3.05;0.85;;;15.10;68.80;;;;;;5093119;28;20486;-68
2021/05/28 02:41:22;;;;;;;1.77;0.68;;;15.10;69.20;;;;;;5092604;28;20028;-67
2021/05/28 02:43:48;;;;;;;5.55;0.90;;;15.00;69.30;;;;;;5091277;28;20400;-67
2021/05/28 02:46:14;;;;;;;2.15;0.70;;;14.90;69.70;;;;;;5073756;28;20031;-67
2021/05/28 02:48:40;;;;;;;6.22;0.70;;;14.90;69.80;;;;;;5091723;28;20024;-67
2021/05/28 02:51:06;;;;;;;1.05;0.60;;;14.80;69.20;;;;;;5092853;28;20387;-67
2021/05/28 02:53:34;;;;;;;2.00;0.60;;;14.70;69.70;;;;;;5094904;28;20043;-68
2021/05/28 02:56:05;;;;;;;8.27;0.63;;;14.70;69.70;;;;;;5095812;28;20515;-67
2021/05/28 02:58:31;;;;;;;1.83;0.70;;;14.60;70.20;;;;;;5095266;28;20032;-67
2021/05/28 03:00:57;;;;;;;1.00;0.80;;;14.50;69.80;;;;;;5095656;28;20021;-67
2021/05/28 03:03:23;;;;;;;2.28;0.63;;;14.40;70.00;;;;;;5095701;28;20380;-67
2021/05/28 03:05:50;;;;;;;6.43;1.13;;;14.40;70.20;;;;;;5095391;28;20028;-68
2021/05/28 03:08:17;;;;;;;1.83;0.75;;;14.30;71.20;;;;;;5096260;28;20043;-68
2021/05/28 03:10:43;;;;;;;2.50;0.60;;;14.30;71.40;;;;;;5096343;28;20024;-67
2021/05/28 03:13:09;;;;;;;14.00;1.85;;;14.30;71.30;;;;;;5096341;28;20032;-68
2021/05/28 03:15:35;;;;;;;0.50;0.40;;;14.30;71.10;;;;;;5096090;28;20032;-68
2021/05/28 03:18:00;;;;;;;2.22;0.63;;;14.30;71.00;;;;;;5095908;28;20350;-67
2021/05/28 03:20:34;;;;;;;1.25;0.70;;;14.30;70.60;;;;;;5096323;28;20028;-67
2021/05/28 03:23:00;;;;;;;5.18;0.50;;;14.30;70.80;;;;;;5096156;28;20099;-67
2021/05/28 03:25:26;;;;;;;3.72;0.70;;;14.20;70.90;;;;;;5096303;28;20515;-67
2021/05/28 03:27:53;;;;;;;2.65;0.52;;;14.10;71.00;;;;;;5095817;28;20024;-67
2021/05/28 03:30:20;;;;;;;1.42;0.60;;;14.10;72.10;;;;;;5095407;28;20085;-67
2021/05/28 03:32:46;;;;;;;3.13;0.73;;;14.10;72.40;;;;;;5095785;28;20031;-67
2021/05/28 03:35:12;;;;;;;8.13;0.93;;;14.10;72.20;;;;;;5095118;28;20066;-67
2021/05/28 03:37:39;;;;;;;1.20;0.63;;;14.10;72.30;;;;;;5096042;28;20123;-67
2021/05/28 03:40:06;;;;;;;1.38;0.60;;;14.10;72.20;;;;;;5095987;28;20429;-67
2021/05/28 03:42:32;;;;;;;1.33;0.65;;;14.10;72.10;;;;;;5095584;28;20028;-67
2021/05/28 03:44:57;;;;;;;1.45;0.60;;;14.10;72.20;;;;;;5095384;28;20036;-67
2021/05/28 03:47:23;;;;;;;5.50;0.77;;;14.10;72.40;;;;;;5094248;28;20032;-67
2021/05/28 03:49:49;;;;;;;1.30;0.70;;;14.10;72.30;;;;;;5094745;28;20026;-67
2021/05/28 03:52:15;;;;;;;2.13;0.90;;;14.10;72.20;;;;;;5093621;28;20027;-68
2021/05/28 03:54:40;;;;;;;1.05;0.60;;;14.10;72.00;;;;;;5094610;28;20028;-67
2021/05/28 03:57:07;;;;;;;3.70;0.73;;;14.20;71.80;;;;;;5095388;28;20032;-67
2021/05/28 03:59:33;;;;;;;1.67;0.60;;;14.20;71.60;;;;;;5095700;28;20028;-67
2021/05/28 04:01:59;;;;;;;4.43;0.75;;;14.20;71.20;;;;;;5095210;28;20043;-67
2021/05/28 04:04:25;;;;;;;0.70;0.60;;;14.20;70.60;;;;;;5094759;28;20036;-67
2021/05/28 04:06:50;;;;;;;4.35;0.63;;;14.30;70.00;;;;;;5095130;28;20043;-67
2021/05/28 04:09:16;;;;;;;2.15;0.70;;;14.30;70.30;;;;;;5095235;28;20467;-67
2021/05/28 04:11:42;;;;;;;1.88;0.82;;;14.30;70.30;;;;;;5093957;28;20465;-68
2021/05/28 04:14:08;;;;;;;2.15;0.50;;;14.40;69.90;;;;;;5092972;28;20036;-67
2021/05/28 04:16:33;;;;;;;2.28;0.85;;;14.40;69.40;;;;;;5093776;28;20024;-67
2021/05/28 04:18:59;;;;;;;3.45;0.77;;;14.50;70.30;;;;;;5094688;28;20392;-67
2021/05/28 04:21:25;;;;;;;1.30;0.63;;;14.50;70.20;;;;;;5094945;28;20031;-68
2021/05/28 04:23:51;;;;;;;6.50;0.80;;;14.50;69.90;;;;;;5094933;28;20032;-68
2021/05/28 04:26:16;;;;;;;3.58;0.90;;;14.40;71.30;;;;;;5094697;28;20028;-67
2021/05/28 04:28:42;;;;;;;2.95;1.00;;;14.50;71.40;;;;;;5094437;28;20480;-67
2021/05/28 04:31:08;;;;;;;3.53;0.75;;;14.40;71.50;;;;;;5093223;28;20111;-67
2021/05/28 04:33:33;;;;;;;4.05;1.05;;;14.40;72.10;;;;;;5094202;28;20028;-68
2021/05/28 04:35:59;;;;;;;2.83;1.10;;;14.40;72.20;;;;;;5094649;28;20036;-67
2021/05/28 04:38:25;;;;;;;2.30;1.00;;;14.40;73.40;;;;;;5093921;28;20483;-67
2021/05/28 04:40:53;;;;;;;2.55;0.85;;;14.40;72.60;;;;;;5093556;28;20095;-67
2021/05/28 04:43:19;;;;;;;2.65;0.85;;;14.50;72.60;;;;;;5094265;28;20020;-67
2021/05/28 04:45:45;;;;;;;3.92;0.90;;;14.50;73.00;;;;;;5094508;28;20032;-67
2021/05/28 04:48:10;;;;;;;4.28;1.45;;;14.50;72.60;;;;;;5094526;28;20050;-67
2021/05/28 04:50:37;;;;;;;0.73;0.63;;;14.40;72.50;;;;;;5094477;28;20036;-68
2021/05/28 04:53:05;;;;;;;3.38;0.90;;;14.40;72.40;;;;;;5094433;28;20376;-67
2021/05/28 04:55:31;;;;;;;2.75;1.27;;;14.40;72.90;;;;;;5094164;28;20035;-67
2021/05/28 04:57:57;;;;;;;1.70;0.60;;;14.40;73.40;;;;;;5094069;28;20376;-68
2021/05/28 05:00:24;;;;;;;2.40;0.70;;;14.40;73.30;;;;;;5093394;28;20445;-67
2021/05/28 05:02:50;;;;;;;4.30;0.80;;;14.40;72.80;;;;;;5092817;28;20110;-67
2021/05/28 05:05:17;;;;;;;5.15;1.45;;;14.50;72.40;;;;;;5093881;28;20031;-67
2021/05/28 05:07:43;;;;;;;4.03;1.10;;;14.50;72.50;;;;;;5093992;28;20028;-68
2021/05/28 05:10:10;;;;;;;4.35;0.82;;;14.50;72.90;;;;;;5094115;28;20062;-67
2021/05/28 05:12:37;;;;;;;2.15;0.80;;;14.50;73.40;;;;;;5093804;28;20024;-68
2021/05/28 05:15:03;;;;;;;3.90;1.02;;;14.60;73.70;;;;;;5093221;28;20042;-67
2021/05/28 05:17:29;;;;;;;2.65;0.80;;;14.60;73.40;;;;;;5093784;28;20028;-67
2021/05/28 05:19:55;;;;;;;4.85;0.90;;;14.60;72.90;;;;;;5093716;28;20040;-67
2021/05/28 05:22:21;;;;;;;3.03;1.15;;;14.60;73.00;;;;;;5093858;28;20032;-68
2021/05/28 05:24:46;;;;;;;2.45;0.85;;;14.70;72.60;;;;;;5092740;28;20379;-67
2021/05/28 05:27:12;;;;;;;4.43;1.02;;;14.70;72.60;;;;;;5093233;28;20031;-67
2021/05/28 05:29:38;;;;;;;3.75;1.10;;;14.80;72.90;;;;;;5093551;28;20036;-68
2021/05/28 05:32:04;;;;;;;2.22;1.00;;;14.80;73.10;;;;;;5092397;28;20108;-68
2021/05/28 05:34:31;;;;;;;5.30;1.42;;;14.80;73.00;;;;;;5092656;28;20032;-67
2021/05/28 05:37:00;;;;;;;3.15;0.90;;;14.80;72.90;;;;;;5092517;28;20398;-68
2021/05/28 05:39:26;;;;;;;4.85;1.17;;;14.90;72.50;;;;;;5092191;28;20066;-68
2021/05/28 05:41:51;;;;;;;6.15;0.90;;;15.00;72.50;;;;;;5092380;28;20028;-68
2021/05/28 05:44:17;;;;;;;2.00;0.90;;;15.00;72.60;;;;;;5092012;28;20556;-68
2021/05/28 05:46:43;;;;;;;2.13;0.70;;;15.10;72.70;;;;;;5092820;28;20027;-68
2021/05/28 05:49:09;;;;;;;4.68;0.90;;;15.10;72.40;;;;;;5092835;28;20036;-68
2021/05/28 05:51:35;;;;;;;5.13;0.73;;;15.20;71.60;;;;;;5092423;28;20032;-69
2021/05/28 05:54:01;;;;;;;2.30;0.90;;;15.20;71.30;;;;;;5091244;28;20047;-68
2021/05/28 05:56:26;;;;;;;4.05;0.82;;;15.30;71.40;;;;;;5093010;28;20028;-69
2021/05/28 05:58:52;;;;;;;2.08;0.80;;;15.30;71.20;;;;;;5092523;28;20016;-69
2021/05/28 06:01:19;;;;;;;3.38;0.90;;;15.40;71.00;;;;;;5091027;28;20379;-69
2021/05/28 06:03:45;;;;;;;1.77;1.02;;;15.40;70.80;;;;;;5093396;28;20020;-70
2021/05/28 06:06:11;;;;;;;2.55;0.95;;;15.50;70.40;;;;;;5074914;28;20529;-69
2021/05/28 06:08:36;;;;;;;6.30;0.95;;;15.50;70.10;;;;;;5093038;28;20039;-68
2021/05/28 06:11:02;;;;;;;14.43;1.00;;;15.60;69.80;;;;;;5093050;28;20384;-70
2021/05/28 06:13:28;;;;;;;3.03;0.90;;;15.60;69.50;;;;;;5092920;28;20024;-69
2021/05/28 06:15:54;;;;;;;2.40;0.80;;;15.60;69.70;;;;;;5092947;28;20043;-69
2021/05/28 06:18:20;;;;;;;2.88;0.90;;;15.70;69.80;;;;;;5092809;28;20030;-69
2021/05/28 06:20:45;;;;;;;1.77;1.00;;;15.60;69.50;;;;;;5092976;28;20020;-69
2021/05/28 06:23:12;;;;;;;3.00;0.88;;;15.60;69.30;;;;;;5092958;28;20082;-69
2021/05/28 06:25:41;;;;;;;1.95;0.82;;;15.70;69.50;;;;;;5093012;28;20024;-68
2021/05/28 06:28:08;;;;;;;4.18;0.75;;;15.70;69.80;;;;;;5095868;28;20388;-68
2021/05/28 06:30:34;;;;;;;1.67;0.70;;;15.80;69.60;;;;;;5096224;28;20418;-69
2021/05/28 06:33:02;;;;;;;6.05;0.70;;;15.80;69.40;;;;;;5094267;28;20020;-68
2021/05/28 06:35:27;;;;;;;3.13;0.75;;;15.80;68.40;;;;;;5095420;28;20032;-69
2021/05/28 06:37:53;;;;;;;0.95;0.40;;;15.90;68.40;;;;;;5094277;28;20031;-69
2021/05/28 06:40:19;;;;;;;2.00;0.50;;;16.00;67.70;;;;;;5095262;28;20109;-69
2021/05/28 06:42:44;;;;;;;2.88;0.60;;;16.00;66.60;;;;;;5094878;28;20116;-69
2021/05/28 06:45:10;;;;;;;1.80;0.60;;;16.10;66.50;;;;;;5095490;28;20036;-69
2021/05/28 06:47:36;;;;;;;1.10;0.70;;;16.10;65.90;;;;;;5096682;28;20032;-68
2021/05/28 06:50:02;;;;;;;1.25;0.50;;;16.10;65.00;;;;;;5096586;28;20012;-69
2021/05/28 06:52:28;;;;;;;2.30;0.50;;;16.20;64.40;;;;;;5097015;28;20103;-68
2021/05/28 06:54:54;;;;;;;1.85;0.60;;;16.20;63.80;;;;;;5096438;28;20575;-69
2021/05/28 06:57:21;;;;;;;2.33;0.60;;;16.30;63.80;;;;;;5096589;28;20097;-68
2021/05/28 06:59:47;;;;;;;0.95;0.50;;;16.40;63.90;;;;;;5095254;28;20032;-68
2021/05/28 07:02:13;;;;;;;1.45;0.60;;;16.40;63.50;;;;;;5095572;28;20377;-69
2021/05/28 07:04:38;;;;;;;3.67;0.60;;;16.50;63.40;;;;;;5094345;28;20063;-69
2021/05/28 07:07:05;;;;;;;0.93;0.50;;;16.60;63.50;;;;;;5094193;28;20020;-69
2021/05/28 07:09:30;;;;;;;3.60;0.60;;;16.60;63.60;;;;;;5094897;28;20060;-69
2021/05/28 07:11:56;;;;;;;1.10;0.50;;;16.70;64.40;;;;;;5094320;28;20451;-69
2021/05/28 07:14:21;;;;;;;1.02;0.55;;;16.80;64.20;;;;;;5096330;28;20041;-69
2021/05/28 07:16:47;;;;;;;1.25;0.55;;;16.80;63.20;;;;;;5096161;28;20036;-69
2021/05/28 07:19:13;;;;;;;2.92;0.55;;;16.90;63.00;;;;;;5096223;28;20535;-69
2021/05/28 07:21:39;;;;;;;3.30;0.57;;;17.00;62.50;;;;;;5095918;28;20024;-69
2021/05/28 07:24:05;;;;;;;1.27;0.45;;;17.00;61.90;;;;;;5096061;28;20039;-69
2021/05/28 07:26:30;;;;;;;2.90;0.60;;;17.00;61.90;;;;;;5094488;28;20395;-69
2021/05/28 07:28:56;;;;;;;1.10;0.70;;;17.10;62.30;;;;;;5093697;28;20044;-69
2021/05/28 07:31:22;;;;;;;2.33;0.60;;;17.20;62.30;;;;;;5095926;28;20024;-69
2021/05/28 07:33:47;;;;;;;1.42;0.60;;;17.20;61.60;;;;;;5095760;28;20031;-70
2021/05/28 07:36:13;;;;;;;3.55;0.98;;;17.20;60.40;;;;;;5094503;28;20081;-69
2021/05/28 07:38:39;;;;;;;4.13;0.73;;;17.20;61.10;;;;;;5094202;28;20019;-69
2021/05/28 07:41:06;;;;;;;1.52;0.50;;;17.30;62.30;;;;;;5095860;28;20117;-68
2021/05/28 07:43:32;;;;;;;2.35;0.60;;;17.40;62.00;;;;;;5094359;28;20024;-69
2021/05/28 07:45:58;;;;;;;2.22;0.70;;;17.40;61.30;;;;;;5094579;28;20078;-69
2021/05/28 07:48:24;;;;;;;2.45;0.47;;;17.50;62.40;;;;;;5093457;28;20020;-69
2021/05/28 07:50:54;;;;;;;0.98;0.50;;;17.50;62.80;;;;;;5094792;28;20026;-69
2021/05/28 07:53:24;;;;;;;1.15;0.60;;;17.60;62.80;;;;;;5095336;28;20039;-68
2021/05/28 07:55:51;;;;;;;2.08;0.80;;;17.70;62.40;;;;;;5094894;28;20038;-68
2021/05/28 07:58:17;;;;;;;4.57;0.50;;;17.70;62.30;;;;;;5095360;28;20103;-68
2021/05/28 08:00:43;;;;;;;1.13;0.52;;;17.80;62.20;;;;;;5095710;28;20027;-68
2021/05/28 08:03:09;;;;;;;4.68;0.55;;;17.80;62.30;;;;;;5095348;28;20020;-68
2021/05/28 08:05:35;;;;;;;3.88;0.60;;;17.90;62.20;;;;;;5095332;28;20077;-69
2021/05/28 08:08:02;;;;;;;1.20;0.60;;;18.00;62.50;;;;;;5095438;28;20020;-68
2021/05/28 08:10:29;;;;;;;3.42;0.57;;;18.00;60.60;;;;;;5095622;28;20024;-68
2021/05/28 08:12:56;;;;;;;1.55;0.50;;;18.10;60.20;;;;;;5095338;28;20103;-69
2021/05/28 08:15:23;;;;;;;3.38;0.60;;;18.10;60.10;;;;;;5095248;28;20036;-69
2021/05/28 08:17:49;;;;;;;2.85;0.50;;;18.20;59.60;;;;;;5076983;28;20380;-69
2021/05/28 08:20:16;;;;;;;2.60;0.47;;;18.30;60.90;;;;;;5094939;28;20028;-69
2021/05/28 08:22:44;;;;;;;0.55;0.40;;;18.40;59.70;;;;;;5094997;28;20023;-68
2021/05/28 08:25:10;;;;;;;2.15;0.57;;;18.50;58.80;;;;;;5094882;28;20013;-69
2021/05/28 08:30:16;;;;;;;0.50;0.40;;;18.60;58.60;;;;;;5093111;28;20044;-74
2021/05/28 08:32:42;;;;;;;0.80;0.40;;;18.70;54.20;;;;;;5094894;28;20028;-74
2021/05/28 08:35:09;;;;;;;2.90;0.77;;;18.70;55.00;;;;;;5094829;28;20026;-74
2021/05/28 08:37:35;;;;;;;0.80;0.50;;;18.70;54.40;;;;;;5094727;28;20468;-73
2021/05/28 08:40:01;;;;;;;3.58;0.50;;;18.80;54.30;;;;;;5094636;28;20091;-69
2021/05/28 08:42:29;;;;;;;2.42;0.50;;;18.90;55.80;;;;;;5076305;28;20472;-73
2021/05/28 08:44:55;;;;;;;2.45;0.50;;;19.00;58.40;;;;;;5094646;28;20069;-74
2021/05/28 08:47:21;;;;;;;1.17;0.50;;;19.10;58.40;;;;;;5094660;28;20024;-74
2021/05/28 08:49:47;;;;;;;1.05;0.40;;;19.10;57.70;;;;;;5094638;28;20357;-74
2021/05/28 08:52:13;;;;;;;0.95;0.30;;;19.20;57.60;;;;;;5094817;28;20031;-74
2021/05/28 08:54:39;;;;;;;4.25;0.50;;;19.30;57.10;;;;;;5094302;28;20028;-74
2021/05/28 08:57:05;;;;;;;1.75;0.60;;;19.30;55.00;;;;;;5094542;28;20070;-75
2021/05/28 08:59:31;;;;;;;0.63;0.40;;;19.40;54.40;;;;;;5094422;28;20031;-75
2021/05/28 09:01:57;;;;;;;0.98;0.40;;;19.50;53.80;;;;;;5094440;28;20028;-73
2021/05/28 09:04:22;;;;;;;0.50;0.35;;;19.50;54.00;;;;;;5094353;28;20028;-74
2021/05/28 09:06:49;;;;;;;0.93;0.38;;;19.60;54.40;;;;;;5094094;28;20455;-74
2021/05/28 09:09:17;;;;;;;1.67;0.50;;;19.70;55.30;;;;;;5093984;28;20495;-74
2021/05/28 09:12:00;;;;;;;2.63;0.50;;;19.90;54.70;;;;;;5094189;28;20036;-74
2021/05/28 09:14:38;;;;;;;1.63;0.40;;;19.90;52.00;;;;;;5094037;28;20037;-74
2021/05/28 09:17:05;;;;;;;1.70;0.50;;;20.00;52.10;;;;;;5094100;28;20036;-71
2021/05/28 09:19:34;;;;;;;2.67;0.50;;;20.00;52.80;;;;;;5094256;28;20054;-74
2021/05/28 09:22:10;;;;;;;1.52;0.40;;;20.10;52.90;;;;;;5093986;28;20032;-73
2021/05/28 09:24:43;;;;;;;0.57;0.40;;;20.20;52.70;;;;;;5094239;28;20012;-73
2021/05/28 09:27:33;;;;;;;0.47;0.35;;;20.30;51.50;;;;;;5093896;28;20059;-74
2021/05/28 09:30:12;;;;;;;0.52;0.40;;;20.40;48.10;;;;;;5093786;28;20052;-75
2021/05/28 09:32:49;;;;;;;1.48;0.43;;;20.40;48.60;;;;;;5093813;28;20422;-74
2021/05/28 09:35:18;;;;;;;0.52;0.32;;;20.50;48.50;;;;;;5093728;28;20384;-74
2021/05/28 09:37:46;;;;;;;2.08;0.50;;;20.60;49.30;;;;;;5093963;28;20032;-74
2021/05/28 09:40:19;;;;;;;1.85;0.50;;;20.60;49.90;;;;;;5093899;28;20444;-74
2021/05/28 09:42:45;;;;;;;2.38;0.60;;;20.70;50.50;;;;;;5093732;28;20044;-74
2021/05/28 09:45:24;;;;;;;1.05;0.50;;;20.80;50.50;;;;;;5093800;28;20020;-75
2021/05/28 09:47:51;;;;;;;1.63;0.70;;;20.80;51.10;;;;;;5093425;28;20071;-74
2021/05/28 09:50:17;;;;;;;3.22;0.50;;;20.90;51.80;;;;;;5093635;28;20047;-74
2021/05/28 09:52:42;;;;;;;1.05;0.57;;;21.00;50.60;;;;;;5093617;28;20052;-74
2021/05/28 09:55:15;;;;;;;2.67;0.68;;;21.00;49.70;;;;;;5093576;28;20039;-75
2021/05/28 09:57:50;;;;;;;1.33;0.63;;;21.00;49.00;;;;;;5075215;28;20020;-74
2021/05/28 10:00:42;;;;;;;3.38;0.60;;;21.10;50.40;;;;;;5093472;28;20115;-74
2021/05/28 10:03:25;;;;;;;3.78;0.60;;;21.10;51.10;;;;;;5092934;28;20021;-71
2021/05/28 10:05:52;;;;;;;;;;;21.20;50.60;;;;;;5093744;28;20032;-75
2021/05/28 10:08:20;;;;;;;1.45;0.70;;;21.20;50.70;;;;;;5093409;28;19908;-74
2021/05/28 10:10:47;;;;;;;1.10;0.70;;;21.30;47.60;;;;;;5093314;28;20028;-75
2021/05/28 10:13:16;;;;;;;2.65;0.63;;;21.30;48.40;;;;;;5092749;28;20472;-73
2021/05/28 10:15:48;;;;;;;1.20;0.63;;;21.40;48.30;;;;;;5092649;28;20043;-74
2021/05/28 10:18:14;;;;;;;;;;;21.40;47.80;;;;;;5093420;28;20388;-74
2021/05/28 10:20:43;;;;;;;3.00;0.63;;;21.40;47.00;;;;;;5092826;28;19972;-74
2021/05/28 10:23:10;;;;;;;1.55;0.70;;;21.40;47.20;;;;;;5092830;28;20491;-74
2021/05/28 10:25:37;;;;;;;0.75;0.60;;;21.50;45.80;;;;;;5091805;28;20036;-72
2021/05/28 10:28:06;;;;;;;2.38;0.65;;;21.50;45.80;;;;;;5092308;28;20024;-74
2021/05/28 10:30:38;;;;;;;5.28;0.60;;;21.60;46.80;;;;;;5091591;28;20507;-71
2021/05/28 10:33:30;;;;;;;0.57;0.50;;;21.70;46.30;;;;;;5093004;28;20028;-74
2021/05/28 10:35:58;;;;;;;3.38;0.70;;;21.70;46.30;;;;;;5088008;28;20059;-75
2021/05/28 10:38:29;;;;;;;2.20;0.52;;;21.80;44.70;;;;;;5092026;28;20027;-73
2021/05/28 10:41:04;;;;;;;1.95;0.70;;;21.80;44.90;;;;;;5091383;28;20028;-73
2021/05/28 10:43:30;;;;;;;1.08;0.63;;;21.80;45.80;;;;;;5092545;28;20024;-73
2021/05/28 10:46:09;;;;;;;0.77;0.60;;;21.90;44.80;;;;;;5092393;28;20024;-74
2021/05/28 10:48:41;;;;;;;1.27;0.60;;;21.90;44.40;;;;;;5092822;28;20021;-75
2021/05/28 10:51:09;;;;;;;1.00;0.50;;;22.00;44.00;;;;;;5092087;28;20038;-74
2021/05/28 10:53:35;;;;;;;2.15;0.70;;;22.00;44.60;;;;;;5090974;28;20028;-74
2021/05/28 10:56:03;;;;;;;1.90;0.80;;;22.00;43.00;;;;;;5090345;28;20040;-74
2021/05/28 10:58:57;;;;;;;1.85;0.70;;;22.00;43.90;;;;;;5090413;28;20035;-74
2021/05/28 11:01:56;;;;;;;1.17;0.60;;;22.10;44.10;;;;;;5089886;28;20455;-74
2021/05/28 11:04:23;;;;;;;1.40;0.65;;;22.10;42.40;;;;;;5083123;28;20068;-74
2021/05/28 11:07:04;;;;;;;0.90;0.50;;;22.10;43.30;;;;;;5093105;28;20383;-74
2021/05/28 11:09:42;;;;;;;2.33;0.60;;;22.10;41.90;;;;;;5092587;28;20028;-74
2021/05/28 11:12:26;;;;;;;2.13;0.70;;;22.20;44.80;;;;;;5092376;28;20073;-74
2021/05/28 11:15:10;;;;;;;1.48;0.60;;;22.30;43.90;;;;;;5095464;28;20071;-74
2021/05/28 11:17:51;;;;;;;1.85;0.70;;;22.30;44.90;;;;;;5096201;28;20066;-70
2021/05/28 11:20:36;;;;;;;2.55;0.70;;;22.30;44.60;;;;;;5096670;28;20032;-65
2021/05/28 11:23:12;;;;;;;3.50;0.70;;;22.40;44.20;;;;;;5094835;28;20077;-65
2021/05/28 11:25:58;;;;;;;3.15;0.75;;;22.50;42.30;;;;;;5093028;28;20020;-65
2021/05/28 11:28:24;;;;;;;2.13;0.77;;;22.50;42.70;;;;;;5092718;28;20416;-63
2021/05/28 11:30:59;;;;;;;1.10;0.70;;;22.50;43.30;;;;;;5095124;28;20476;-64
2021/05/28 11:33:35;;;;;;;1.77;0.70;;;22.50;43.90;;;;;;5095687;28;20074;-64
2021/05/28 11:36:17;;;;;;;2.30;0.80;;;22.60;45.70;;;;;;5095553;28;20051;-63
2021/05/28 11:38:53;;;;;;;0.50;0.43;;;22.60;44.70;;;;;;5095365;28;20046;-69
2021/05/28 11:41:19;;;;;;;2.95;0.88;;;22.70;43.70;;;;;;5095951;28;20484;-70
2021/05/28 11:43:45;;;;;;;4.15;0.70;;;22.70;43.50;;;;;;5077452;28;20050;-63
2021/05/28 11:46:11;;;;;;;3.08;0.65;;;22.70;43.70;;;;;;5095176;28;20456;-74
2021/05/28 11:48:37;;;;;;;0.80;0.57;;;22.80;42.20;;;;;;5095609;28;20028;-66
2021/05/28 11:51:04;;;;;;;0.57;0.40;;;22.80;41.80;;;;;;5095609;28;20107;-68
2021/05/28 11:53:35;;;;;;;1.08;0.52;;;22.80;43.30;;;;;;5095185;28;20039;-75
2021/05/28 11:56:02;;;;;;;0.80;0.70;;;22.80;42.60;;;;;;5095192;28;20028;-74
2021/05/28 11:58:32;;;;;;;2.75;0.70;;;22.80;44.30;;;;;;5094798;28;20020;-78
2021/05/28 12:00:59;;;;;;;3.17;0.65;;;22.90;43.10;;;;;;5094926;28;20028;-64
2021/05/28 12:03:25;;;;;;;1.88;0.52;;;22.90;40.80;;;;;;5095377;28;20422;-64
2021/05/28 12:05:52;;;;;;;0.60;0.50;;;22.90;43.00;;;;;;5095113;28;20115;-65
2021/05/28 12:08:27;;;;;;;3.17;1.08;;;23.00;42.90;;;;;;5094871;28;20021;-65
2021/05/28 12:10:57;;;;;;;2.80;0.77;;;23.00;45.10;;;;;;5095006;28;20016;-64
2021/05/28 12:13:35;;;;;;;3.33;0.70;;;23.10;41.40;;;;;;5095136;28;20020;-64
2021/05/28 12:16:05;;;;;;;0.52;0.52;;;23.10;41.80;;;;;;5094669;28;20123;-65
2021/05/28 12:18:48;;;;;;;0.80;0.60;;;23.10;43.30;;;;;;5094948;28;20030;-64
2021/05/28 12:21:13;;;;;;;;;;;23.10;42.60;;;;;;5095412;28;20036;-64
2021/05/28 12:23:44;;;;;;;1.10;0.60;;;23.20;42.80;;;;;;5094831;28;19904;-64
2021/05/28 12:26:17;;;;;;;2.92;0.70;;;23.30;44.10;;;;;;5094646;28;20039;-64
2021/05/28 12:28:45;;;;;;;1.92;0.70;;;23.40;43.50;;;;;;5076364;28;20047;-64
2021/05/28 12:31:11;;;;;;;2.10;1.00;;;23.40;41.70;;;;;;5094806;28;20432;-65
2021/05/28 12:33:42;;;;;;;1.63;0.80;;;23.40;42.00;;;;;;5094766;28;20109;-65
2021/05/28 12:36:11;;;;;;;3.10;0.93;;;23.40;42.40;;;;;;5094761;28;20064;-64
2021/05/28 12:38:41;;;;;;;0.90;0.45;;;23.50;41.30;;;;;;5094791;28;20024;-69
2021/05/28 12:41:29;;;;;;;1.13;0.70;;;23.50;41.30;;;;;;5094380;28;20025;-69
2021/05/28 12:43:56;;;;;;;2.50;0.80;;;23.50;41.90;;;;;;5094017;28;20105;-71
2021/05/28 12:46:33;;;;;;;3.45;0.85;;;23.40;40.30;;;;;;5094451;28;20111;-70
2021/05/28 12:49:10;;;;;;;1.83;0.60;;;23.40;42.70;;;;;;5094268;28;20464;-71
2021/05/28 12:51:46;;;;;;;3.78;0.73;;;23.40;42.40;;;;;;5074402;28;20054;-70
2021/05/28 12:54:26;;;;;;;5.05;0.85;;;23.40;42.40;;;;;;5093426;28;20020;-71